createdAt,value
2019-05-17T00:00:29.366Z,74.00
2019-05-17T00:04:36.417Z,74.20
2019-05-17T00:08:42.198Z,74.20
2019-05-17T00:12:48.759Z,74.20
2019-05-17T00:16:57.108Z,74.40
2019-05-17T00:21:02.051Z,74.40
2019-05-17T00:25:08.176Z,74.30
2019-05-17T00:29:13.953Z,74.40
2019-05-17T00:33:19.677Z,74.50
2019-05-17T00:37:26.469Z,74.70
2019-05-17T00:41:32.251Z,74.70
2019-05-17T00:45:40.394Z,74.70
2019-05-17T00:49:48.524Z,74.70
2019-05-17T00:53:56.256Z,74.80
2019-05-17T00:58:03.330Z,74.70
2019-05-17T01:02:10.911Z,74.80
2019-05-17T01:06:16.974Z,74.80
2019-05-17T01:10:22.905Z,74.90
2019-05-17T01:14:29.176Z,74.90
2019-05-17T01:18:36.179Z,74.90
2019-05-17T01:22:42.040Z,74.90
2019-05-17T01:26:48.825Z,75.00
2019-05-17T01:30:56.842Z,75.00
2019-05-17T01:35:03.370Z,75.10
2019-05-17T01:39:17.699Z,75.00
2019-05-17T01:43:19.346Z,75.10
2019-05-17T01:47:27.100Z,75.20
2019-05-17T01:51:32.539Z,75.10
2019-05-17T01:55:39.291Z,75.10
2019-05-17T01:59:46.724Z,75.10
2019-05-17T02:03:52.682Z,75.30
2019-05-17T02:08:00.476Z,75.20
2019-05-17T02:12:07.740Z,75.20
2019-05-17T02:16:13.428Z,75.20
2019-05-17T02:20:19.290Z,75.10
2019-05-17T02:24:27.361Z,75.10
2019-05-17T02:28:32.496Z,75.30
2019-05-17T02:32:38.478Z,75.20
2019-05-17T02:36:44.187Z,75.40
2019-05-17T02:40:53.282Z,75.40
2019-05-17T02:44:58.817Z,75.50
2019-05-17T02:49:04.692Z,75.60
2019-05-17T02:53:13.072Z,75.60
2019-05-17T02:57:18.171Z,75.70
2019-05-17T03:01:23.867Z,76.10
2019-05-17T03:05:33.953Z,76.10
2019-05-17T03:09:38.892Z,76.10
2019-05-17T03:13:46.491Z,76.10
2019-05-17T03:17:53.845Z,76.90
2019-05-17T03:22:04.413Z,76.10
2019-05-17T03:26:08.754Z,76.30
2019-05-17T03:30:18.204Z,76.30
2019-05-17T03:34:26.663Z,76.40
2019-05-17T03:38:32.494Z,76.50
2019-05-17T03:42:37.959Z,77.10
2019-05-17T03:46:46.186Z,76.50
2019-05-17T03:50:53.258Z,76.40
2019-05-17T03:55:03.840Z,76.50
2019-05-17T03:59:12.619Z,76.40
2019-05-17T04:03:16.823Z,76.60
2019-05-17T04:07:24.048Z,76.40
2019-05-17T04:11:35.906Z,76.40
2019-05-17T04:15:38.390Z,76.40
2019-05-17T04:19:44.030Z,76.60
2019-05-17T04:23:49.657Z,76.50
2019-05-17T04:27:55.379Z,76.60
2019-05-17T04:32:03.966Z,76.40
2019-05-17T04:36:12.880Z,76.60
2019-05-17T04:40:16.746Z,76.60
2019-05-17T04:44:23.063Z,76.40
2019-05-17T04:48:28.978Z,76.50
2019-05-17T04:52:34.759Z,76.80
2019-05-17T04:56:42.636Z,76.20
2019-05-17T05:00:48.584Z,76.40
2019-05-17T05:04:55.161Z,90.70
2019-05-17T05:09:02.546Z,92.50
2019-05-17T05:13:09.039Z,92.50
2019-05-17T05:17:15.867Z,92.90
2019-05-17T05:21:23.078Z,85.70
2019-05-17T05:25:28.946Z,83.70
2019-05-17T05:29:34.569Z,87.20
2019-05-17T05:33:41.961Z,92.90
2019-05-17T05:37:47.462Z,92.80
2019-05-17T05:42:06.516Z,93.30
2019-05-17T05:46:02.562Z,94.00
2019-05-17T05:50:21.697Z,92.80
2019-05-17T05:54:26.172Z,92.20
2019-05-17T05:58:32.308Z,92.80
2019-05-17T06:02:41.711Z,91.80
2019-05-17T06:06:46.453Z,92.80
2019-05-17T06:10:53.089Z,90.40
2019-05-17T06:14:58.976Z,85.80
2019-05-17T06:19:04.712Z,90.60
2019-05-17T06:23:12.272Z,92.30
2019-05-17T06:27:18.135Z,91.00
2019-05-17T06:31:24.200Z,90.80
2019-05-17T06:35:32.355Z,88.00
2019-05-17T06:39:37.330Z,81.10
2019-05-17T06:43:43.000Z,84.70
2019-05-17T06:47:51.816Z,81.20
2019-05-17T06:51:56.051Z,86.00
2019-05-17T06:56:02.705Z,85.60
2019-05-17T07:00:15.627Z,87.10
2019-05-17T07:04:19.220Z,83.00
2019-05-17T07:08:25.130Z,82.90
2019-05-17T07:12:30.959Z,86.60
2019-05-17T07:16:36.783Z,88.20
2019-05-17T07:20:42.431Z,84.30
2019-05-17T07:24:50.175Z,80.10
2019-05-17T07:28:55.499Z,77.50
2019-05-17T07:33:01.157Z,82.60
2019-05-17T07:37:07.008Z,77.00
2019-05-17T07:41:12.658Z,77.50
2019-05-17T07:45:20.340Z,78.10
2019-05-17T07:49:26.163Z,74.50
2019-05-17T07:53:31.892Z,74.70
2019-05-17T07:57:37.554Z,81.60
2019-05-17T08:01:43.183Z,76.70
2019-05-17T08:05:50.638Z,76.30
2019-05-17T08:09:56.367Z,76.10
2019-05-17T08:14:02.028Z,73.90
2019-05-17T08:18:10.462Z,73.70
2019-05-17T08:22:15.278Z,78.30
2019-05-17T08:26:21.066Z,75.00
2019-05-17T08:30:26.794Z,73.60
2019-05-17T08:34:32.457Z,72.80
2019-05-17T08:38:39.340Z,72.70
2019-05-17T08:42:45.034Z,74.50
2019-05-17T08:46:50.633Z,76.60
2019-05-17T08:50:56.472Z,75.80
2019-05-17T08:55:02.087Z,79.60
2019-05-17T08:59:09.611Z,79.20
2019-05-17T09:03:15.642Z,75.50
2019-05-17T09:07:21.416Z,71.40
2019-05-17T09:11:27.220Z,71.60
2019-05-17T09:15:32.913Z,73.60
2019-05-17T09:19:39.495Z,74.80
2019-05-17T09:23:46.326Z,75.40
2019-05-17T09:27:52.128Z,74.70
2019-05-17T09:31:59.900Z,68.70
2019-05-17T09:36:05.411Z,71.50
2019-05-17T09:40:11.942Z,74.00
2019-05-17T09:44:20.665Z,75.00
2019-05-17T09:48:26.676Z,72.50
2019-05-17T09:52:32.486Z,72.70
2019-05-17T09:56:39.487Z,71.90
2019-05-17T10:00:45.251Z,67.90
2019-05-17T10:04:50.914Z,66.90
2019-05-17T10:08:56.616Z,65.40
2019-05-17T10:13:02.859Z,70.30
2019-05-17T10:17:09.892Z,71.80
2019-05-17T10:21:15.528Z,72.40
2019-05-17T10:25:21.398Z,71.30
2019-05-17T10:29:27.167Z,71.30
2019-05-17T10:33:32.925Z,69.40
2019-05-17T10:37:40.676Z,70.30
2019-05-17T10:41:45.762Z,69.20
2019-05-17T10:45:51.374Z,70.60
2019-05-17T10:49:57.323Z,69.60
2019-05-17T10:54:04.545Z,69.70
2019-05-17T10:58:10.357Z,68.00
2019-05-17T11:02:19.673Z,69.60
2019-05-17T11:06:30.170Z,69.90
2019-05-17T11:10:39.424Z,69.10
2019-05-17T11:14:52.564Z,67.50
2019-05-17T11:18:56.320Z,67.40
2019-05-17T11:23:01.957Z,67.70
2019-05-17T11:27:07.922Z,70.20
2019-05-17T11:31:15.057Z,67.60
2019-05-17T11:35:24.794Z,65.50
2019-05-17T11:39:30.571Z,66.90
2019-05-17T11:43:36.438Z,66.70
2019-05-17T11:47:41.981Z,68.30
2019-05-17T11:51:47.740Z,68.60
2019-05-17T11:55:53.380Z,69.30
2019-05-17T11:59:59.009Z,65.20
2019-05-17T12:04:04.721Z,65.80
2019-05-17T12:08:10.497Z,65.40
2019-05-17T12:12:16.168Z,63.60
2019-05-17T12:16:21.834Z,64.00
2019-05-17T12:20:27.468Z,64.40
2019-05-17T12:24:33.253Z,64.40
2019-05-17T12:28:38.985Z,63.10
2019-05-17T12:32:44.731Z,65.70
2019-05-17T12:36:50.424Z,64.70
2019-05-17T12:40:56.098Z,63.30
2019-05-17T12:45:02.344Z,61.20
2019-05-17T12:49:08.263Z,63.80
2019-05-17T12:53:13.919Z,62.30
2019-05-17T12:57:19.676Z,62.20
2019-05-17T13:01:25.441Z,63.70
2019-05-17T13:05:31.107Z,63.40
2019-05-17T13:09:36.868Z,62.90
2019-05-17T13:13:42.532Z,68.40
2019-05-17T13:17:49.457Z,62.80
2019-05-17T13:21:55.139Z,64.70
2019-05-17T13:26:00.746Z,62.90
2019-05-17T13:30:07.036Z,61.20
2019-05-17T13:34:13.111Z,64.50
2019-05-17T13:38:19.788Z,62.70
2019-05-17T13:42:25.866Z,62.80
2019-05-17T13:46:33.514Z,63.50
2019-05-17T13:50:39.884Z,61.10
2019-05-17T13:54:47.700Z,65.50
2019-05-17T13:58:53.381Z,64.60
2019-05-17T14:02:59.115Z,64.40
2019-05-17T14:07:04.881Z,64.00
2019-05-17T14:11:13.179Z,63.00
2019-05-17T14:15:19.447Z,64.70
2019-05-17T14:19:25.337Z,62.30
2019-05-17T14:23:31.032Z,61.40
2019-05-17T14:27:36.711Z,61.10
2019-05-17T14:31:42.357Z,61.30
2019-05-17T14:35:48.164Z,65.00
2019-05-17T14:39:53.783Z,63.20
2019-05-17T14:43:59.425Z,63.70
2019-05-17T14:48:05.142Z,64.40
2019-05-17T14:52:10.734Z,65.00
2019-05-17T14:56:16.382Z,63.10
2019-05-17T15:00:23.261Z,64.50
2019-05-17T15:04:28.946Z,65.00
2019-05-17T15:08:34.761Z,63.40
2019-05-17T15:12:40.589Z,66.90
2019-05-17T15:16:46.306Z,65.90
2019-05-17T15:20:51.975Z,63.70
2019-05-17T15:24:58.788Z,64.60
2019-05-17T15:29:05.236Z,66.70
2019-05-17T15:33:10.982Z,64.50
2019-05-17T15:37:16.677Z,66.30
2019-05-17T15:41:22.320Z,63.90
2019-05-17T15:45:27.996Z,64.00
2019-05-17T15:49:33.609Z,65.00
2019-05-17T15:53:39.470Z,67.60
2019-05-17T15:57:45.122Z,67.90
2019-05-17T16:01:50.785Z,66.80
2019-05-17T16:05:56.539Z,66.80
2019-05-17T16:10:10.911Z,65.80
2019-05-17T16:14:18.812Z,68.60
2019-05-17T16:18:24.508Z,68.30
2019-05-17T16:22:30.843Z,68.30
2019-05-17T16:26:36.560Z,69.80
2019-05-17T16:30:42.203Z,68.20
2019-05-17T16:34:47.997Z,69.10
2019-05-17T16:38:54.017Z,69.30
2019-05-17T16:43:00.598Z,67.30
2019-05-17T16:47:06.378Z,68.80
2019-05-17T16:51:12.174Z,70.90
2019-05-17T16:55:17.794Z,70.40
2019-05-17T16:59:23.797Z,68.10
2019-05-17T17:03:43.273Z,70.80
2019-05-17T17:07:37.147Z,69.60
2019-05-17T17:11:45.657Z,68.30
2019-05-17T17:15:50.126Z,70.90
2019-05-17T17:19:55.789Z,68.50
2019-05-17T17:24:01.777Z,67.90
2019-05-17T17:28:07.689Z,71.20
2019-05-17T17:32:21.042Z,71.80
2019-05-17T17:36:20.648Z,66.90
2019-05-17T17:40:26.283Z,68.70
2019-05-17T17:44:31.979Z,69.50
2019-05-17T17:48:37.972Z,69.10
2019-05-17T17:52:44.927Z,66.80
2019-05-17T17:56:50.609Z,70.70
2019-05-17T18:00:56.271Z,69.60
2019-05-17T18:05:01.995Z,70.50
2019-05-17T18:09:09.159Z,71.80
2019-05-17T18:13:14.908Z,71.70
2019-05-17T18:17:20.659Z,72.00
2019-05-17T18:21:26.402Z,70.30
2019-05-17T18:25:32.219Z,71.60
2019-05-17T18:29:38.235Z,71.20
2019-05-17T18:33:44.488Z,71.70
2019-05-17T18:37:50.179Z,68.10
2019-05-17T18:41:56.113Z,70.60
2019-05-17T18:46:01.808Z,71.40
2019-05-17T18:50:08.358Z,71.80
2019-05-17T18:54:14.128Z,72.30
2019-05-17T18:58:20.853Z,72.40
2019-05-17T19:02:26.628Z,71.90
2019-05-17T19:06:32.615Z,76.10
2019-05-17T19:10:38.242Z,79.50
2019-05-17T19:14:45.162Z,79.40
2019-05-17T19:18:53.289Z,80.00
2019-05-17T19:22:59.341Z,79.40
2019-05-17T19:27:05.448Z,72.70
2019-05-17T19:34:39.875Z,77.60
2019-05-17T19:38:49.154Z,72.40
2019-05-17T19:42:58.037Z,73.90
2019-05-17T19:47:06.329Z,75.80
2019-05-17T19:51:13.260Z,77.30
2019-05-17T19:55:23.082Z,77.40
2019-05-17T19:59:49.244Z,75.20
2019-05-17T20:03:59.700Z,77.90
2019-05-17T20:08:09.980Z,78.10
2019-05-17T20:12:17.696Z,78.40
2019-05-17T20:16:26.152Z,72.20
2019-05-17T20:20:33.296Z,69.70
2019-05-17T20:24:40.175Z,70.90
2019-05-17T20:28:47.008Z,75.20
2019-05-17T20:32:55.504Z,80.20
2019-05-17T20:37:04.209Z,81.10
2019-05-17T20:41:11.194Z,80.90
2019-05-17T20:45:32.160Z,79.50
2019-05-17T20:49:27.042Z,74.60
2019-05-17T20:53:34.494Z,69.50
2019-05-17T20:57:51.568Z,67.70
2019-05-17T21:02:04.572Z,67.50
2019-05-17T21:06:13.390Z,68.20
2019-05-17T21:10:20.405Z,72.30
2019-05-17T21:14:28.217Z,72.50
2019-05-17T21:18:35.204Z,74.10
2019-05-17T21:22:41.992Z,74.80
2019-05-17T21:26:52.050Z,80.80
2019-05-17T21:31:00.292Z,83.30
2019-05-17T21:35:07.722Z,79.10
2019-05-17T21:39:14.509Z,82.40
2019-05-17T21:43:21.778Z,83.50
2019-05-17T21:47:28.571Z,76.50
2019-05-17T21:51:37.309Z,82.20
2019-05-17T21:55:44.230Z,82.50
2019-05-17T21:59:52.064Z,75.20
2019-05-17T22:04:00.173Z,71.80
2019-05-17T22:08:08.617Z,71.90
2019-05-17T22:12:15.409Z,74.70
2019-05-17T22:16:22.192Z,72.60
2019-05-17T22:20:29.951Z,72.40
2019-05-17T22:24:36.819Z,71.10
2019-05-17T22:28:43.650Z,70.70
2019-05-17T22:32:51.344Z,70.50
2019-05-17T22:36:59.724Z,79.30
2019-05-17T22:41:06.522Z,81.10
2019-05-17T22:45:13.674Z,74.50
2019-05-17T22:49:20.615Z,74.60
2019-05-17T22:53:27.835Z,73.60
2019-05-17T22:57:34.597Z,72.50
2019-05-17T23:01:41.342Z,73.70
2019-05-17T23:05:49.652Z,71.90
2019-05-17T23:09:56.863Z,71.90
2019-05-17T23:14:03.788Z,72.30
2019-05-17T23:18:10.544Z,73.30
2019-05-17T23:22:17.446Z,74.60
2019-05-17T23:26:24.374Z,72.80
2019-05-17T23:30:31.227Z,74.80
2019-05-17T23:34:38.073Z,72.00
2019-05-17T23:38:45.072Z,74.20
2019-05-17T23:42:51.722Z,73.20
2019-05-17T23:47:07.109Z,73.80
2019-05-17T23:51:07.584Z,73.80
2019-05-17T23:55:15.003Z,74.70
2019-05-17T23:59:21.839Z,72.80
